Time;durP1;ratioP1;P1;durP2;ratioP2;P2;SDS_P1;SDS_P2;PMS_P1;PMS_P2;Temp;Humidity;BMP_temperature;BMP_pressure;BME280_temperature;BME280_humidity;BME280_pressure;Samples;Min_cycle;Max_cycle;Signal;HPM_P1;HPM_P2
2022/04/12 00:00:06;;;;;;;11.75;3.50;;;8.50;99.90;;;;;;5011373;28;20074;-75
2022/04/12 00:02:32;;;;;;;5.20;2.88;;;8.60;99.90;;;;;;5008806;28;20030;-76
2022/04/12 00:04:58;;;;;;;5.80;3.15;;;8.50;99.90;;;;;;5011143;28;20037;-75
2022/04/12 00:07:24;;;;;;;6.28;3.20;;;8.50;99.90;;;;;;5013009;28;20014;-74
2022/04/12 00:09:50;;;;;;;6.65;3.20;;;8.50;99.90;;;;;;5012780;28;20197;-74
2022/04/12 00:12:15;;;;;;;5.65;3.10;;;8.40;99.90;;;;;;5010305;28;20110;-74
2022/04/12 00:14:42;;;;;;;8.18;3.13;;;8.40;99.90;;;;;;5016545;28;20033;-74
2022/04/12 00:19:52;;;;;;;8.50;3.22;;;8.50;99.90;;;;;;5014236;28;20084;-73
2022/04/12 00:22:18;;;;;;;4.10;2.72;;;8.50;99.90;;;;;;5010953;28;20438;-74
2022/04/12 00:24:44;;;;;;;5.18;3.22;;;8.50;99.90;;;;;;5013927;28;20026;-74
2022/04/12 00:27:10;;;;;;;6.50;3.10;;;8.60;99.90;;;;;;5013703;28;20034;-73
2022/04/12 00:29:36;;;;;;;4.00;2.72;;;8.60;99.90;;;;;;5010781;28;20026;-74
2022/04/12 00:32:02;;;;;;;3.58;2.47;;;8.60;99.90;;;;;;5008652;28;20078;-73
2022/04/12 00:34:28;;;;;;;6.90;3.50;;;8.70;99.90;;;;;;5021784;28;20121;-72
2022/04/12 00:36:53;;;;;;;4.72;2.53;;;8.60;99.90;;;;;;5013046;28;20052;-72
2022/04/12 00:39:19;;;;;;;3.60;2.20;;;8.60;99.90;;;;;;5013926;28;20494;-73
2022/04/12 00:41:45;;;;;;;6.22;2.17;;;8.70;99.90;;;;;;5011056;28;20060;-73
2022/04/12 00:44:10;;;;;;;2.55;2.10;;;8.70;99.90;;;;;;5010512;28;20096;-73
2022/04/12 00:46:36;;;;;;;4.43;2.30;;;8.70;99.90;;;;;;5013552;28;20115;-74
2022/04/12 00:49:02;;;;;;;5.78;3.22;;;8.70;99.90;;;;;;5011474;28;20022;-74
2022/04/12 00:51:28;;;;;;;11.55;4.07;;;8.70;99.90;;;;;;5005580;28;20168;-74
2022/04/12 00:53:56;;;;;;;4.50;2.55;;;8.70;99.90;;;;;;5012677;28;20156;-73
2022/04/12 00:56:24;;;;;;;4.47;1.92;;;8.70;99.90;;;;;;5013293;28;20560;-75
2022/04/12 00:58:50;;;;;;;6.43;2.22;;;8.70;99.90;;;;;;5013967;28;20120;-73
2022/04/12 01:01:16;;;;;;;3.53;1.98;;;8.80;99.90;;;;;;5013483;28;20517;-73
2022/04/12 01:03:42;;;;;;;5.50;2.03;;;8.80;99.90;;;;;;5009383;28;20025;-73
2022/04/12 01:06:08;;;;;;;5.95;3.03;;;8.80;99.90;;;;;;5010363;28;20029;-73
2022/04/12 01:08:34;;;;;;;8.45;2.00;;;8.90;99.90;;;;;;5012683;28;20018;-74
2022/04/12 01:11:06;;;;;;;4.63;1.75;;;8.90;99.90;;;;;;5012395;28;20041;-73
2022/04/12 01:13:36;;;;;;;1.70;1.60;;;8.90;99.90;;;;;;5007146;28;20100;-74
2022/04/12 01:16:01;;;;;;;3.92;2.20;;;9.00;99.90;;;;;;5012697;28;20134;-73
2022/04/12 01:18:27;;;;;;;3.38;2.20;;;8.90;99.90;;;;;;5013633;28;20069;-72
2022/04/12 01:20:53;;;;;;;3.20;2.08;;;8.90;99.90;;;;;;5012001;28;20026;-72
2022/04/12 01:23:39;;;;;;;6.80;2.30;;;8.80;99.90;;;;;;5008538;28;20088;-72
2022/04/12 01:26:06;;;;;;;4.70;2.10;;;8.60;99.90;;;;;;5009341;28;20077;-73
2022/04/12 01:28:32;;;;;;;5.72;2.63;;;8.50;99.90;;;;;;5011620;28;20088;-73
2022/04/12 01:30:57;;;;;;;4.80;3.03;;;8.40;99.90;;;;;;5012920;28;20152;-74
2022/04/12 01:33:23;;;;;;;5.68;2.63;;;8.40;99.90;;;;;;5009683;28;20445;-73
2022/04/12 01:35:49;;;;;;;8.00;2.88;;;8.40;99.90;;;;;;5012010;28;20030;-73
2022/04/12 01:38:15;;;;;;;7.03;3.70;;;8.40;99.90;;;;;;5012846;28;20068;-73
2022/04/12 01:40:40;;;;;;;7.90;4.10;;;8.40;99.90;;;;;;5012200;28;20056;-74
2022/04/12 01:43:06;;;;;;;8.40;3.33;;;8.40;99.90;;;;;;5009286;28;20029;-73
2022/04/12 01:45:32;;;;;;;4.53;2.80;;;8.50;99.90;;;;;;5012594;28;20551;-74
2022/04/12 01:47:57;;;;;;;5.28;2.47;;;8.40;99.90;;;;;;5011810;28;20429;-74
2022/04/12 01:50:23;;;;;;;8.82;2.92;;;8.30;99.90;;;;;;5011036;28;20022;-73
2022/04/12 01:52:49;;;;;;;3.00;2.40;;;8.30;99.90;;;;;;5008108;28;20077;-72
2022/04/12 01:55:15;;;;;;;7.38;2.50;;;8.30;99.90;;;;;;5010654;28;20150;-73
2022/04/12 01:57:41;;;;;;;4.18;2.30;;;8.30;99.90;;;;;;5010469;28;20030;-73
2022/04/12 02:00:08;;;;;;;3.40;2.17;;;8.30;99.90;;;;;;5011904;28;20494;-73
2022/04/12 02:02:33;;;;;;;7.07;3.53;;;8.20;99.90;;;;;;5008271;28;20033;-74
2022/04/12 02:04:59;;;;;;;7.53;2.28;;;8.20;99.90;;;;;;5011098;28;20084;-74
2022/04/12 02:07:26;;;;;;;4.57;2.10;;;8.20;99.90;;;;;;5006404;28;20026;-73
2022/04/12 02:09:52;;;;;;;3.78;2.35;;;8.10;99.90;;;;;;5008107;28;20034;-72
2022/04/12 02:12:18;;;;;;;4.47;2.17;;;8.00;99.90;;;;;;5008598;28;20080;-72
2022/04/12 02:14:44;;;;;;;3.67;1.95;;;8.10;99.90;;;;;;5009950;28;20394;-73
2022/04/12 02:17:10;;;;;;;3.20;2.40;;;8.00;99.90;;;;;;5010886;28;20029;-73
2022/04/12 02:19:35;;;;;;;6.68;2.58;;;8.00;99.90;;;;;;5013573;28;20057;-74
2022/04/12 02:22:01;;;;;;;3.95;2.33;;;7.90;99.90;;;;;;5009349;28;20026;-73
2022/04/12 02:24:27;;;;;;;1.85;1.60;;;7.90;99.90;;;;;;5010170;28;20030;-76
2022/04/12 02:26:52;;;;;;;4.25;2.03;;;7.80;99.90;;;;;;5010124;28;20061;-73
2022/04/12 02:29:18;;;;;;;5.75;2.25;;;7.80;99.90;;;;;;5011556;28;20367;-73
2022/04/12 02:31:44;;;;;;;4.55;1.90;;;7.80;99.90;;;;;;5010382;28;20084;-74
2022/04/12 02:34:10;;;;;;;4.53;2.88;;;7.70;99.90;;;;;;5008170;28;20022;-73
2022/04/12 02:36:36;;;;;;;4.72;2.30;;;7.80;99.90;;;;;;5009339;28;20561;-74
2022/04/12 02:39:02;;;;;;;3.67;1.55;;;7.80;99.90;;;;;;5011241;28;20101;-73
2022/04/12 02:41:28;;;;;;;3.88;2.15;;;7.80;99.90;;;;;;5010332;28;20029;-74
2022/04/12 02:43:53;;;;;;;3.67;2.70;;;7.80;99.90;;;;;;5007938;28;20034;-73
2022/04/12 02:46:19;;;;;;;7.40;3.28;;;7.80;99.90;;;;;;5008496;28;20398;-74
2022/04/12 02:48:45;;;;;;;10.10;2.58;;;7.80;99.90;;;;;;5009544;28;20033;-75
2022/04/12 02:51:10;;;;;;;7.70;2.70;;;7.80;99.90;;;;;;5008948;28;20034;-73
2022/04/12 02:53:36;;;;;;;3.70;2.35;;;7.80;99.90;;;;;;5009210;28;20036;-73
2022/04/12 02:56:02;;;;;;;6.00;2.30;;;7.70;99.90;;;;;;5011147;28;20022;-75
2022/04/12 02:58:28;;;;;;;10.68;2.88;;;7.70;99.90;;;;;;5007103;28;20033;-73
2022/04/12 03:00:54;;;;;;;5.32;2.75;;;7.50;99.90;;;;;;5006211;28;20030;-74
2022/04/12 03:03:19;;;;;;;7.85;4.57;;;7.60;99.90;;;;;;5008768;28;20351;-74
2022/04/12 03:05:45;;;;;;;7.07;3.70;;;7.50;99.90;;;;;;5006531;28;20050;-75
2022/04/12 03:08:11;;;;;;;4.47;3.03;;;7.50;99.90;;;;;;5009131;28;20045;-74
2022/04/12 03:10:36;;;;;;;4.38;2.97;;;7.60;99.90;;;;;;5006459;28;20021;-74
2022/04/12 03:13:02;;;;;;;6.13;4.22;;;7.50;99.90;;;;;;5006179;28;20104;-74
2022/04/12 03:15:28;;;;;;;5.88;5.18;;;7.50;99.90;;;;;;5010038;28;20045;-75
2022/04/12 03:17:54;;;;;;;9.70;6.40;;;7.50;99.90;;;;;;5008701;28;20076;-75
2022/04/12 03:20:20;;;;;;;6.40;5.80;;;7.50;99.90;;;;;;5009094;28;20030;-73
2022/04/12 03:22:45;;;;;;;10.25;4.78;;;7.70;99.90;;;;;;5009265;28;20719;-74
2022/04/12 03:25:11;;;;;;;4.80;3.05;;;7.60;99.90;;;;;;5007103;28;20736;-73
2022/04/12 03:27:37;;;;;;;7.00;3.15;;;7.60;99.90;;;;;;5007557;28;20038;-73
2022/04/12 03:30:04;;;;;;;4.40;2.80;;;7.60;99.90;;;;;;5010724;28;20080;-73
2022/04/12 03:32:30;;;;;;;6.38;3.67;;;7.60;99.90;;;;;;5010640;28;20033;-74
2022/04/12 03:34:56;;;;;;;8.70;3.10;;;7.60;99.90;;;;;;5008689;28;20378;-74
2022/04/12 03:37:22;;;;;;;7.18;3.22;;;7.60;99.90;;;;;;5009876;28;20084;-74
2022/04/12 03:39:50;;;;;;;7.05;2.70;;;7.60;99.90;;;;;;5003281;28;20105;-72
2022/04/12 03:42:18;;;;;;;6.13;3.00;;;7.50;99.90;;;;;;5007759;28;20129;-73
2022/04/12 03:44:44;;;;;;;3.83;2.35;;;7.50;99.90;;;;;;5007836;28;20109;-73
2022/04/12 03:47:10;;;;;;;4.93;2.28;;;7.50;99.90;;;;;;5008120;28;20034;-73
2022/04/12 03:49:35;;;;;;;7.97;2.53;;;7.40;99.90;;;;;;5009178;28;20033;-74
2022/04/12 03:52:01;;;;;;;7.25;3.00;;;7.40;99.90;;;;;;5008986;28;20145;-73
2022/04/12 03:54:27;;;;;;;6.55;2.83;;;7.40;99.90;;;;;;5008531;28;20037;-73
2022/04/12 03:56:53;;;;;;;2.85;2.40;;;7.40;99.90;;;;;;5008547;28;20076;-73
2022/04/12 03:59:18;;;;;;;6.25;2.47;;;7.40;99.90;;;;;;5010555;28;20509;-73
2022/04/12 04:01:46;;;;;;;9.43;3.25;;;7.50;99.90;;;;;;5007307;28;20032;-74
2022/04/12 04:04:12;;;;;;;5.25;2.60;;;7.50;99.90;;;;;;5009426;28;20053;-75
2022/04/12 04:06:38;;;;;;;5.43;2.03;;;7.50;99.90;;;;;;5007681;28;20390;-74
2022/04/12 04:09:04;;;;;;;7.60;1.88;;;7.60;99.90;;;;;;5008532;28;20033;-73
2022/04/12 04:11:29;;;;;;;4.10;2.70;;;7.60;99.90;;;;;;5009229;28;20038;-71
2022/04/12 04:13:55;;;;;;;3.17;2.28;;;7.50;99.90;;;;;;5007984;28;20030;-70
2022/04/12 04:16:21;;;;;;;11.73;3.90;;;7.50;99.90;;;;;;5008286;28;20037;-70
2022/04/12 04:18:47;;;;;;;15.52;2.88;;;7.40;99.90;;;;;;5010119;28;20483;-71
2022/04/12 04:21:12;;;;;;;7.13;2.65;;;7.40;99.90;;;;;;5009147;28;20026;-70
2022/04/12 04:23:38;;;;;;;5.43;2.25;;;7.30;99.90;;;;;;5009980;28;20034;-71
2022/04/12 04:26:04;;;;;;;12.57;2.60;;;7.30;99.90;;;;;;5008537;28;20025;-70
2022/04/12 04:28:30;;;;;;;10.23;2.80;;;7.40;99.90;;;;;;5012627;28;20026;-71
2022/04/12 04:30:57;;;;;;;6.50;2.28;;;7.40;99.90;;;;;;5013897;28;20022;-72
2022/04/12 04:33:22;;;;;;;13.32;4.00;;;7.40;99.90;;;;;;5013939;28;20033;-72
2022/04/12 04:35:49;;;;;;;29.73;5.20;;;7.40;99.90;;;;;;5011120;28;20037;-70
2022/04/12 04:38:15;;;;;;;12.40;2.90;;;7.50;99.90;;;;;;5013683;28;20036;-71
2022/04/12 04:40:42;;;;;;;5.07;3.08;;;7.50;99.90;;;;;;5012994;28;20080;-70
2022/04/12 04:43:08;;;;;;;14.70;3.80;;;7.50;99.90;;;;;;5013487;28;20080;-67
2022/04/12 04:45:35;;;;;;;11.05;2.90;;;7.50;99.90;;;;;;5007542;28;20049;-65
2022/04/12 04:48:03;;;;;;;6.95;3.38;;;7.50;99.90;;;;;;5009677;28;20121;-65
2022/04/12 04:50:31;;;;;;;7.68;2.45;;;7.60;99.90;;;;;;5007679;28;20026;-64
2022/04/12 04:53:03;;;;;;;12.23;3.03;;;7.60;99.90;;;;;;5008928;28;20030;-66
2022/04/12 04:55:29;;;;;;;7.90;2.00;;;7.60;99.90;;;;;;5010728;28;20026;-65
2022/04/12 04:57:57;;;;;;;7.35;2.70;;;7.70;99.90;;;;;;5012769;28;20049;-66
2022/04/12 05:00:25;;;;;;;6.03;2.20;;;7.70;99.90;;;;;;5014108;28;20026;-66
2022/04/12 05:02:53;;;;;;;9.52;2.78;;;7.70;99.90;;;;;;5013899;28;20105;-67
2022/04/12 05:05:19;;;;;;;11.30;3.05;;;7.80;99.90;;;;;;5010367;28;20032;-66
2022/04/12 05:07:47;;;;;;;9.48;2.15;;;7.80;99.90;;;;;;5010399;28;20022;-66
2022/04/12 05:10:18;;;;;;;8.02;3.03;;;7.80;99.90;;;;;;5013192;28;20029;-66
2022/04/12 05:12:44;;;;;;;7.05;2.58;;;7.70;99.90;;;;;;5012381;28;20493;-66
2022/04/12 05:15:10;;;;;;;22.13;3.85;;;7.70;99.90;;;;;;5012611;28;20379;-66
2022/04/12 05:17:36;;;;;;;10.05;2.42;;;7.80;99.90;;;;;;5013629;28;20482;-65
2022/04/12 05:20:06;;;;;;;8.20;2.65;;;8.00;99.90;;;;;;5013099;28;20401;-67
2022/04/12 05:22:31;;;;;;;11.68;3.97;;;8.10;99.90;;;;;;5012462;28;20044;-67
2022/04/12 05:24:57;;;;;;;13.25;3.42;;;8.10;99.90;;;;;;5004835;28;20026;-66
2022/04/12 05:27:23;;;;;;;15.65;2.80;;;8.20;99.90;;;;;;5012527;28;20022;-66
2022/04/12 05:29:49;;;;;;;20.85;3.42;;;8.30;99.90;;;;;;5012843;28;20022;-66
2022/04/12 05:32:15;;;;;;;9.00;3.45;;;8.40;99.90;;;;;;5010738;28;20038;-66
2022/04/12 05:34:41;;;;;;;11.90;3.58;;;8.50;99.90;;;;;;5009017;28;20817;-66
2022/04/12 05:37:07;;;;;;;19.20;4.18;;;8.60;99.90;;;;;;5012346;28;20052;-66
2022/04/12 05:39:33;;;;;;;13.80;3.30;;;8.60;99.90;;;;;;5011678;28;20482;-66
2022/04/12 05:42:00;;;;;;;9.02;3.63;;;8.70;99.90;;;;;;5012660;28;20030;-66
2022/04/12 05:44:33;;;;;;;15.52;5.45;;;8.80;99.90;;;;;;5010113;28;20079;-66
2022/04/12 05:47:02;;;;;;;7.10;3.63;;;8.90;99.90;;;;;;5008778;28;20083;-65
2022/04/12 05:49:29;;;;;;;14.65;4.97;;;9.10;99.90;;;;;;5010573;28;20032;-66
2022/04/12 05:51:55;;;;;;;9.57;3.28;;;9.20;99.90;;;;;;5011486;28;20021;-66
2022/04/12 05:54:21;;;;;;;14.60;3.28;;;9.30;99.90;;;;;;5010406;28;20036;-65
2022/04/12 05:56:47;;;;;;;8.13;4.05;;;9.30;99.90;;;;;;5010864;28;20548;-66
2022/04/12 05:59:13;;;;;;;13.98;3.33;;;9.30;99.90;;;;;;5009693;28;20033;-65
2022/04/12 06:01:39;;;;;;;8.10;3.60;;;9.50;99.90;;;;;;5011195;28;20026;-67
2022/04/12 06:04:05;;;;;;;9.60;3.55;;;9.50;99.90;;;;;;5010897;28;20026;-65
2022/04/12 06:06:32;;;;;;;20.77;3.33;;;9.70;99.90;;;;;;5010594;28;20022;-66
2022/04/12 06:08:59;;;;;;;12.02;4.07;;;9.80;99.90;;;;;;5009788;28;20025;-66
2022/04/12 06:11:25;;;;;;;12.70;3.30;;;9.90;99.90;;;;;;5011441;28;20017;-67
2022/04/12 06:13:51;;;;;;;18.02;5.63;;;10.00;99.90;;;;;;5006412;28;20044;-66
2022/04/12 06:16:16;;;;;;;21.73;4.32;;;10.10;99.90;;;;;;5011430;28;20070;-66
2022/04/12 06:18:42;;;;;;;16.48;4.70;;;10.30;99.90;;;;;;5011877;28;20105;-66
2022/04/12 06:21:08;;;;;;;7.70;3.47;;;10.40;99.90;;;;;;5009935;28;20029;-66
2022/04/12 06:23:34;;;;;;;18.70;4.63;;;10.60;99.90;;;;;;5011719;28;20030;-67
2022/04/12 06:25:59;;;;;;;15.48;3.78;;;10.90;99.90;;;;;;5009894;28;20033;-66
2022/04/12 06:28:25;;;;;;;8.48;4.22;;;11.00;99.90;;;;;;5010689;28;20026;-66
2022/04/12 06:30:52;;;;;;;12.70;4.68;;;11.20;99.90;;;;;;5010701;28;20394;-65
2022/04/12 06:33:18;;;;;;;23.67;6.97;;;11.40;99.90;;;;;;5011805;28;20018;-66
2022/04/12 06:35:44;;;;;;;15.30;6.82;;;11.50;99.90;;;;;;5011053;28;20040;-66
2022/04/12 06:38:10;;;;;;;13.32;6.60;;;11.70;99.90;;;;;;5007064;28;20030;-67
2022/04/12 06:40:36;;;;;;;12.75;7.60;;;11.80;99.90;;;;;;5006757;28;20025;-66
2022/04/12 06:43:02;;;;;;;14.93;6.53;;;11.80;99.90;;;;;;5006185;28;20026;-65
2022/04/12 06:45:28;;;;;;;17.42;6.65;;;12.00;99.90;;;;;;5006606;28;20026;-67
2022/04/12 06:47:59;;;;;;;9.23;5.63;;;12.00;99.90;;;;;;5009063;28;20106;-66
2022/04/12 06:50:27;;;;;;;21.20;6.35;;;12.10;99.90;;;;;;5008063;28;20026;-67
2022/04/12 06:52:54;;;;;;;8.90;4.50;;;12.10;99.90;;;;;;5009287;28;20439;-66
2022/04/12 06:55:21;;;;;;;6.13;3.72;;;12.20;99.90;;;;;;5008311;28;20577;-67
2022/04/12 06:57:47;;;;;;;10.18;4.32;;;12.30;99.90;;;;;;5005550;28;20084;-66
2022/04/12 07:00:13;;;;;;;16.20;4.97;;;12.40;99.90;;;;;;5009937;28;20061;-66
2022/04/12 07:02:39;;;;;;;11.32;3.10;;;12.50;99.90;;;;;;5003204;28;20034;-65
2022/04/12 07:05:07;;;;;;;6.13;3.55;;;12.90;99.90;;;;;;5009868;28;20101;-65
2022/04/12 07:07:36;;;;;;;7.75;4.38;;;13.00;99.90;;;;;;5011661;28;20382;-67
2022/04/12 07:10:04;;;;;;;10.75;4.05;;;13.10;99.90;;;;;;5009685;28;20124;-65
2022/04/12 07:12:30;;;;;;;10.48;3.28;;;13.00;99.90;;;;;;5008692;28;20029;-66
2022/04/12 07:14:55;;;;;;;16.38;3.83;;;13.00;99.90;;;;;;5011649;28;20088;-66
2022/04/12 07:17:21;;;;;;;4.70;2.55;;;13.00;99.90;;;;;;5030694;28;20091;-67
2022/04/12 07:19:47;;;;;;;9.10;3.10;;;13.10;99.90;;;;;;5026043;28;20366;-66
2022/04/12 07:22:13;;;;;;;5.88;3.88;;;13.30;99.90;;;;;;5010508;28;20030;-66
2022/04/12 07:24:38;;;;;;;4.75;3.08;;;13.40;99.90;;;;;;5012393;28;20034;-66
2022/04/12 07:27:04;;;;;;;5.97;3.33;;;13.50;99.90;;;;;;5005083;28;20038;-67
2022/04/12 07:29:30;;;;;;;10.25;2.83;;;13.60;99.90;;;;;;5007373;28;20036;-66
2022/04/12 07:31:57;;;;;;;8.85;3.65;;;13.80;99.90;;;;;;5009568;28;20113;-67
2022/04/12 07:34:22;;;;;;;8.65;3.63;;;13.80;99.90;;;;;;5008841;28;20030;-67
2022/04/12 07:36:53;;;;;;;5.18;3.10;;;13.80;99.90;;;;;;5009009;28;20072;-66
2022/04/12 07:39:19;;;;;;;11.63;3.88;;;13.80;99.90;;;;;;5010184;28;20112;-66
2022/04/12 07:41:48;;;;;;;19.60;4.57;;;13.90;99.90;;;;;;5010084;28;20470;-66
2022/04/12 07:44:16;;;;;;;6.00;4.20;;;13.80;99.90;;;;;;5010416;28;20037;-67
2022/04/12 07:46:42;;;;;;;7.40;3.47;;;13.80;99.90;;;;;;5010122;28;20057;-66
2022/04/12 07:49:08;;;;;;;16.92;4.40;;;13.90;99.90;;;;;;5010099;28;20046;-66
2022/04/12 07:51:34;;;;;;;7.78;3.40;;;13.90;99.90;;;;;;5010295;28;20127;-65
2022/04/12 07:54:04;;;;;;;7.43;3.30;;;13.90;99.90;;;;;;5009835;28;20042;-66
2022/04/12 07:56:30;;;;;;;12.98;2.90;;;14.00;99.90;;;;;;5009735;28;20422;-66
2022/04/12 07:58:56;;;;;;;18.23;3.20;;;14.10;99.90;;;;;;5010837;28;20482;-66
2022/04/12 08:01:22;;;;;;;9.50;3.50;;;14.20;99.90;;;;;;5010628;28;20125;-67
2022/04/12 08:03:48;;;;;;;8.30;2.83;;;14.20;99.90;;;;;;5011213;28;20241;-66
2022/04/12 08:06:14;;;;;;;8.45;2.53;;;14.30;99.90;;;;;;5015860;28;20022;-66
2022/04/12 08:08:40;;;;;;;8.18;2.05;;;14.30;99.90;;;;;;5013741;28;20018;-66
2022/04/12 08:11:07;;;;;;;2.03;1.65;;;14.20;99.90;;;;;;5014406;28;20108;-68
2022/04/12 08:13:33;;;;;;;8.63;2.10;;;14.20;99.90;;;;;;5013073;28;20088;-67
2022/04/12 08:15:59;;;;;;;4.18;2.30;;;14.10;99.90;;;;;;5015095;28;20455;-65
2022/04/12 08:18:25;;;;;;;3.85;1.27;;;14.30;99.90;;;;;;5011533;28;20351;-67
2022/04/12 08:20:50;;;;;;;6.18;2.88;;;14.30;99.90;;;;;;5013565;28;20026;-67
2022/04/12 08:23:17;;;;;;;12.05;3.28;;;14.30;99.90;;;;;;5012913;28;20030;-67
2022/04/12 08:25:45;;;;;;;5.32;2.95;;;14.20;99.90;;;;;;5013321;28;20022;-67
2022/04/12 08:28:11;;;;;;;13.30;2.25;;;14.20;99.90;;;;;;5014408;28;20041;-67
2022/04/12 08:30:37;;;;;;;7.20;2.28;;;14.20;99.90;;;;;;5013913;28;20018;-67
2022/04/12 08:33:03;;;;;;;5.05;1.75;;;14.10;99.90;;;;;;5011182;28;20033;-67
2022/04/12 08:35:29;;;;;;;13.07;2.22;;;14.00;99.90;;;;;;5013604;28;20363;-67
2022/04/12 08:37:55;;;;;;;8.13;1.50;;;13.90;99.90;;;;;;5012697;28;20497;-67
2022/04/12 08:40:21;;;;;;;10.57;2.22;;;13.80;99.90;;;;;;5013439;28;20430;-67
2022/04/12 08:42:48;;;;;;;12.00;2.50;;;13.80;99.90;;;;;;5011702;28;20486;-66
2022/04/12 08:45:14;;;;;;;5.00;1.92;;;14.00;99.90;;;;;;5012644;28;20487;-67
2022/04/12 08:47:41;;;;;;;4.45;2.15;;;13.90;99.90;;;;;;5013183;28;20401;-67
2022/04/12 08:50:08;;;;;;;10.70;2.47;;;13.90;99.90;;;;;;5013168;28;20022;-66
2022/04/12 08:52:36;;;;;;;4.90;2.13;;;14.00;99.90;;;;;;5010820;28;20025;-66
2022/04/12 08:55:03;;;;;;;1.77;0.95;;;14.20;99.90;;;;;;5010936;28;20088;-66
2022/04/12 08:57:29;;;;;;;5.82;3.15;;;14.30;99.90;;;;;;5008576;28;20083;-67
2022/04/12 08:59:55;;;;;;;5.57;1.77;;;14.30;99.90;;;;;;5016291;28;20029;-66
2022/04/12 09:02:20;;;;;;;2.65;1.73;;;14.30;99.90;;;;;;5013173;28;20161;-67
2022/04/12 09:04:46;;;;;;;2.13;1.67;;;14.30;99.90;;;;;;5011614;28;20061;-67
2022/04/12 09:07:13;;;;;;;5.25;2.30;;;14.30;99.90;;;;;;5009267;28;20116;-68
2022/04/12 09:09:42;;;;;;;4.35;1.60;;;14.20;99.90;;;;;;5011890;28;20018;-68
2022/04/12 09:12:10;;;;;;;4.15;2.05;;;14.10;99.90;;;;;;5012807;28;20045;-66
2022/04/12 09:14:40;;;;;;;4.93;1.60;;;14.20;99.90;;;;;;5010030;28;20046;-67
2022/04/12 09:17:08;;;;;;;7.72;2.05;;;14.20;99.90;;;;;;5012691;28;20054;-67
2022/04/12 09:19:42;;;;;;;6.68;1.85;;;14.30;99.90;;;;;;5011488;28;20200;-65
2022/04/12 09:22:17;;;;;;;7.25;1.70;;;14.20;99.90;;;;;;5014203;28;20048;-66
2022/04/12 09:24:47;;;;;;;7.63;2.25;;;14.20;99.90;;;;;;5011639;28;20021;-65
2022/04/12 09:27:14;;;;;;;4.20;1.70;;;14.30;99.90;;;;;;5009843;28;20091;-66
2022/04/12 09:30:11;;;;;;;3.92;1.60;;;14.40;99.90;;;;;;5011962;28;20022;-65
2022/04/12 09:32:38;;;;;;;4.65;1.52;;;14.60;99.90;;;;;;5012473;28;20033;-66
2022/04/12 09:35:06;;;;;;;3.40;1.70;;;14.60;99.90;;;;;;5011643;28;20021;-66
2022/04/12 09:37:40;;;;;;;3.25;2.00;;;14.60;99.90;;;;;;5001144;28;20038;-66
2022/04/12 09:40:08;;;;;;;6.30;2.10;;;14.60;99.90;;;;;;5007698;28;20520;-66
2022/04/12 09:42:50;;;;;;;6.88;1.80;;;14.60;99.90;;;;;;5010867;28;20087;-65
2022/04/12 09:45:22;;;;;;;4.03;1.42;;;14.60;99.90;;;;;;5012667;28;20030;-65
2022/04/12 09:47:49;;;;;;;;;;;14.70;99.90;;;;;;5012697;28;20022;-65
2022/04/12 09:50:15;;;;;;;5.68;1.90;;;14.70;99.90;;;;;;5011943;28;19951;-66
2022/04/12 09:52:53;;;;;;;3.47;1.55;;;14.60;99.90;;;;;;5010770;28;20452;-66
2022/04/12 09:55:40;;;;;;;4.30;1.30;;;14.60;99.90;;;;;;5010727;28;20033;-65
2022/04/12 09:58:08;;;;;;;7.68;1.60;;;14.60;99.90;;;;;;4993217;28;20034;-65
2022/04/12 10:00:35;;;;;;;8.45;1.88;;;14.50;99.90;;;;;;4992418;28;20033;-65
2022/04/12 10:03:12;;;;;;;2.13;1.40;;;14.60;99.90;;;;;;5008401;28;20111;-65
2022/04/12 10:05:38;;;;;;;4.32;1.98;;;14.70;99.90;;;;;;5011799;28;20030;-65
2022/04/12 10:08:05;;;;;;;1.83;1.45;;;14.80;99.90;;;;;;5011864;28;20030;-65
2022/04/12 10:10:32;;;;;;;3.95;2.13;;;14.90;99.90;;;;;;5011542;28;20109;-65
2022/04/12 10:12:58;;;;;;;7.55;1.60;;;14.90;99.90;;;;;;5009266;28;20394;-65
2022/04/12 10:15:26;;;;;;;3.58;1.77;;;14.80;99.90;;;;;;5012067;28;20466;-65
2022/04/12 10:17:52;;;;;;;4.15;2.42;;;14.80;99.90;;;;;;5011967;28;20527;-66
2022/04/12 10:20:19;;;;;;;2.10;1.90;;;14.70;99.90;;;;;;5010374;28;20482;-66
2022/04/12 10:22:46;;;;;;;4.78;1.52;;;14.70;99.90;;;;;;5010650;28;20037;-65
2022/04/12 10:25:17;;;;;;;9.40;1.30;;;14.60;99.90;;;;;;5004838;28;20029;-65
2022/04/12 10:27:43;;;;;;;8.02;1.70;;;14.70;99.90;;;;;;5004164;28;20105;-64
2022/04/12 10:30:18;;;;;;;4.13;1.77;;;14.70;99.90;;;;;;5010072;28;20065;-64
2022/04/12 10:33:07;;;;;;;4.53;1.83;;;14.70;99.90;;;;;;5010973;28;20030;-65
2022/04/12 10:35:42;;;;;;;6.05;2.20;;;14.80;99.90;;;;;;5010001;28;20030;-66
2022/04/12 10:38:09;;;;;;;7.90;1.80;;;15.00;99.90;;;;;;5009270;28;20048;-66
2022/04/12 10:40:35;;;;;;;4.38;1.65;;;15.00;99.90;;;;;;5010526;28;20068;-65
2022/04/12 10:43:03;;;;;;;3.75;2.47;;;14.80;99.90;;;;;;5009310;28;20441;-67
2022/04/12 10:45:33;;;;;;;8.73;1.70;;;14.80;99.90;;;;;;5009698;28;20040;-66
2022/04/12 10:48:02;;;;;;;5.60;2.67;;;14.60;99.90;;;;;;5009015;28;20052;-65
2022/04/12 10:50:40;;;;;;;3.45;1.52;;;14.60;99.90;;;;;;5009942;28;20110;-66
2022/04/12 10:53:06;;;;;;;5.25;1.88;;;14.70;99.90;;;;;;4991681;28;20030;-66
2022/04/12 10:55:41;;;;;;;5.95;1.33;;;14.70;99.90;;;;;;5006239;28;20453;-65
2022/04/12 10:58:36;;;;;;;2.08;1.42;;;14.70;99.90;;;;;;5007296;28;20045;-65
2022/04/12 11:01:04;;;;;;;2.35;1.45;;;14.60;99.90;;;;;;5013305;28;20538;-65
2022/04/12 11:03:41;;;;;;;3.60;1.75;;;14.60;99.90;;;;;;5011682;28;20117;-65
2022/04/12 11:06:11;;;;;;;4.07;1.23;;;14.70;99.90;;;;;;5010566;28;20072;-65
2022/04/12 11:08:36;;;;;;;5.60;1.63;;;14.80;99.90;;;;;;5007103;28;20022;-65
2022/04/12 11:11:04;;;;;;;5.35;1.83;;;14.80;99.90;;;;;;5006344;28;20026;-65
2022/04/12 11:13:34;;;;;;;5.43;2.72;;;14.90;99.90;;;;;;5010572;28;20053;-66
2022/04/12 11:16:03;;;;;;;11.43;2.30;;;14.90;99.90;;;;;;4994706;28;20569;-65
2022/04/12 11:18:50;;;;;;;3.85;2.03;;;14.90;99.90;;;;;;5002188;28;20029;-66
2022/04/12 11:21:17;;;;;;;9.38;2.75;;;14.90;99.90;;;;;;5008340;28;20054;-66
2022/04/12 11:23:44;;;;;;;4.10;2.55;;;14.80;99.90;;;;;;5010465;28;20393;-65
2022/04/12 11:26:36;;;;;;;12.57;2.58;;;14.90;99.90;;;;;;5009453;28;20076;-65
2022/04/12 11:29:07;;;;;;;7.88;2.40;;;15.00;99.90;;;;;;5010794;28;20045;-65
2022/04/12 11:31:36;;;;;;;6.30;2.03;;;15.10;99.90;;;;;;5018619;28;20024;-65
2022/04/12 11:34:02;;;;;;;8.55;2.58;;;15.10;99.90;;;;;;5028509;28;20067;-65
2022/04/12 11:36:29;;;;;;;10.50;2.05;;;15.00;99.90;;;;;;5031203;28;20033;-66
2022/04/12 11:38:56;;;;;;;2.85;1.75;;;15.20;99.90;;;;;;5030857;28;20351;-64
2022/04/12 11:41:22;;;;;;;4.55;1.98;;;15.20;99.90;;;;;;5031083;28;20420;-66
2022/04/12 11:43:57;;;;;;;4.85;2.22;;;15.20;99.90;;;;;;5022930;28;20092;-66
2022/04/12 11:46:22;;;;;;;8.82;2.38;;;15.10;99.90;;;;;;5010486;28;20045;-64
2022/04/12 11:48:48;;;;;;;10.52;2.60;;;15.10;99.90;;;;;;5012459;28;20054;-64
2022/04/12 11:51:17;;;;;;;6.82;3.80;;;15.00;99.90;;;;;;5013959;28;20535;-65
2022/04/12 11:53:50;;;;;;;9.55;2.78;;;15.10;99.90;;;;;;5011475;28;20470;-65
2022/04/12 11:56:15;;;;;;;6.50;2.40;;;15.10;99.90;;;;;;5010847;28;20117;-66
2022/04/12 11:58:44;;;;;;;11.65;2.72;;;15.10;99.90;;;;;;5010683;28;20109;-67
2022/04/12 12:01:11;;;;;;;3.45;1.92;;;15.00;99.90;;;;;;5010254;28;20030;-65
2022/04/12 12:03:37;;;;;;;4.90;2.15;;;15.00;99.90;;;;;;5010593;28;20033;-66
2022/04/12 12:06:03;;;;;;;5.22;1.80;;;15.10;99.90;;;;;;5028843;28;20022;-66
2022/04/12 12:08:29;;;;;;;13.75;2.83;;;15.10;99.90;;;;;;5030405;28;20029;-66
2022/04/12 12:10:56;;;;;;;8.18;1.63;;;15.10;99.90;;;;;;5030786;28;20100;-66
2022/04/12 12:13:24;;;;;;;3.03;1.80;;;15.30;99.90;;;;;;5030043;28;20481;-64
2022/04/12 12:15:50;;;;;;;7.68;3.00;;;15.30;99.90;;;;;;5030282;28;20050;-65
2022/04/12 12:18:18;;;;;;;7.10;2.13;;;15.30;99.90;;;;;;5029789;28;20392;-65
2022/04/12 12:20:46;;;;;;;3.05;1.80;;;15.20;99.90;;;;;;5014507;28;20148;-65
2022/04/12 12:23:12;;;;;;;6.53;2.55;;;15.20;99.90;;;;;;5009184;28;20041;-65
2022/04/12 12:25:42;;;;;;;2.78;2.10;;;15.40;99.90;;;;;;5009256;28;20105;-66
2022/04/12 12:28:14;;;;;;;4.88;2.53;;;15.30;99.90;;;;;;5008458;28;20042;-66
2022/04/12 12:30:42;;;;;;;4.32;2.33;;;15.40;99.90;;;;;;5015236;28;20018;-66
2022/04/12 12:33:08;;;;;;;4.28;2.55;;;15.30;99.90;;;;;;5016213;28;20084;-66
2022/04/12 12:35:37;;;;;;;6.97;2.60;;;15.20;99.90;;;;;;5010124;28;20026;-66
2022/04/12 12:38:03;;;;;;;7.65;2.28;;;15.30;99.90;;;;;;5010816;28;20025;-67
2022/04/12 12:40:30;;;;;;;7.65;3.10;;;15.30;99.90;;;;;;5009896;28;20075;-65
2022/04/12 12:42:56;;;;;;;5.13;2.22;;;15.30;99.90;;;;;;5009339;28;20026;-66
2022/04/12 12:45:24;;;;;;;4.43;2.47;;;15.20;99.90;;;;;;5008959;28;20026;-65
2022/04/12 12:47:51;;;;;;;5.43;2.58;;;15.20;99.90;;;;;;5008280;28;20022;-65
2022/04/12 12:50:18;;;;;;;8.13;2.95;;;15.20;99.90;;;;;;5012502;28;20034;-66
2022/04/12 12:52:45;;;;;;;5.60;2.28;;;15.30;99.90;;;;;;5012750;28;20105;-65